Time;durP1;ratioP1;P1;durP2;ratioP2;P2;SDS_P1;SDS_P2;PMS_P1;PMS_P2;Temp;Humidity;BMP_temperature;BMP_pressure;BME280_temperature;BME280_humidity;BME280_pressure;Samples;Min_cycle;Max_cycle;Signal;HPM_P1;HPM_P2
2023/06/28 00:00:35;;;;;;;2.72;1.55;;;;;;;18.98;65.46;101985.22;5068691;28;20041;-77
2023/06/28 00:03:01;;;;;;;0.00;0.00;;;;;;;18.95;65.53;101985.34;5065211;28;20029;-80
2023/06/28 00:05:27;;;;;;;0.08;0.08;;;;;;;18.96;65.72;101982.59;5068711;28;20017;-78
2023/06/28 00:07:53;;;;;;;0.10;0.10;;;;;;;18.98;65.07;101983.41;5068239;28;20021;-80
2023/06/28 00:10:20;;;;;;;0.20;0.20;;;;;;;18.97;66.08;101987.03;5069268;28;20124;-80
2023/06/28 00:12:46;;;;;;;0.10;0.10;;;;;;;18.97;66.48;101973.59;5053185;28;20031;-79
2023/06/28 00:15:12;;;;;;;0.10;0.10;;;;;;;18.99;66.60;101978.91;5062646;28;20127;-77
2023/06/28 00:17:38;;;;;;;0.10;0.10;;;;;;;19.00;65.91;101977.97;5063894;28;20067;-78
2023/06/28 00:20:07;;;;;;;0.00;0.00;;;;;;;19.00;65.74;101981.53;5070502;28;20032;-79
2023/06/28 00:22:34;;;;;;;0.00;0.00;;;;;;;19.01;65.78;101972.53;5062725;28;20033;-80
2023/06/28 00:25:01;;;;;;;0.00;0.00;;;;;;;19.01;65.23;101977.91;5069609;28;20052;-79
2023/06/28 00:27:28;;;;;;;0.20;0.20;;;;;;;19.01;64.93;101975.22;5067489;28;20029;-80
2023/06/28 00:29:56;;;;;;;0.10;0.10;;;;;;;19.00;64.90;101975.31;5064925;28;20079;-80
2023/06/28 00:32:23;;;;;;;0.10;0.10;;;;;;;18.98;64.78;101974.47;5069241;28;20021;-80
2023/06/28 00:34:49;;;;;;;0.10;0.10;;;;;;;18.96;64.87;101970.97;5064995;28;20043;-79
2023/06/28 00:37:16;;;;;;;1.40;1.35;;;;;;;18.94;65.54;101978.22;5067574;28;20044;-80
2023/06/28 00:39:42;;;;;;;0.10;0.10;;;;;;;18.94;65.76;101976.41;5057335;28;20403;-78
2023/06/28 00:42:08;;;;;;;0.00;0.00;;;;;;;18.93;65.97;101977.34;5067126;28;20071;-79
2023/06/28 00:44:35;;;;;;;0.08;0.08;;;;;;;18.93;65.96;101977.34;5064884;28;20033;-78
2023/06/28 00:47:02;;;;;;;0.10;0.10;;;;;;;18.97;66.05;101973.59;5059077;28;20480;-77
2023/06/28 00:49:31;;;;;;;0.10;0.10;;;;;;;18.97;66.29;101975.44;5063583;28;20032;-79
2023/06/28 00:51:59;;;;;;;0.00;0.00;;;;;;;18.97;65.63;101976.28;5069015;28;20309;-80
2023/06/28 00:54:26;;;;;;;0.20;0.20;;;;;;;18.96;65.79;101971.84;5067928;28;20403;-79
2023/06/28 00:56:52;;;;;;;0.10;0.10;;;;;;;18.94;65.73;101972.84;5065902;28;20779;-78
2023/06/28 00:59:19;;;;;;;0.30;0.30;;;;;;;18.90;65.93;101969.34;5066252;28;20036;-78
2023/06/28 01:01:47;;;;;;;0.10;0.10;;;;;;;18.87;65.34;101967.66;5068299;28;20087;-79
2023/06/28 01:04:13;;;;;;;0.10;0.10;;;;;;;18.87;65.35;101969.50;5067174;28;20071;-78
2023/06/28 01:06:51;;;;;;;0.10;0.10;;;;;;;18.88;65.19;101966.75;5064558;28;20039;-80
2023/06/28 01:09:18;;;;;;;0.00;0.00;;;;;;;18.86;65.23;101970.41;5066480;28;20039;-80
2023/06/28 01:11:44;;;;;;;0.13;0.13;;;;;;;18.84;65.01;101965.09;5064492;28;20053;-81
2023/06/28 01:14:11;;;;;;;0.17;0.17;;;;;;;18.85;65.23;101968.66;5064695;28;20033;-79
2023/06/28 01:16:39;;;;;;;0.00;0.00;;;;;;;18.81;65.19;101957.16;5068802;28;20114;-79
2023/06/28 01:19:09;;;;;;;0.00;0.00;;;;;;;18.82;65.29;101963.41;5068367;28;20104;-80
2023/06/28 01:21:41;;;;;;;0.55;0.55;;;;;;;18.79;65.50;101967.09;5070868;28;20029;-79
2023/06/28 01:24:10;;;;;;;0.05;0.05;;;;;;;18.75;65.39;101957.38;5060191;28;20029;-80
2023/06/28 01:26:38;;;;;;;0.00;0.00;;;;;;;18.72;65.69;101957.50;5061174;28;20036;-79
2023/06/28 01:29:05;;;;;;;0.08;0.08;;;;;;;18.71;65.75;101956.59;5060952;28;20028;-79
2023/06/28 01:31:32;;;;;;;0.10;0.10;;;;;;;18.70;65.58;101959.34;5061199;28;20021;-79
2023/06/28 01:33:58;;;;;;;0.25;0.25;;;;;;;18.67;65.91;101954.97;5044731;28;20033;-79
2023/06/28 01:36:24;;;;;;;0.00;0.00;;;;;;;18.69;66.27;101954.91;5060818;28;20021;-80
2023/06/28 01:38:52;;;;;;;0.10;0.10;;;;;;;18.68;65.78;101953.16;5059769;28;20072;-80
2023/06/28 01:41:18;;;;;;;0.10;0.10;;;;;;;18.67;66.05;101954.97;5059155;28;20098;-79
2023/06/28 01:43:44;;;;;;;0.10;0.10;;;;;;;18.69;66.71;101962.97;5064777;28;20043;-80
2023/06/28 01:46:11;;;;;;;0.10;0.10;;;;;;;18.70;66.24;101952.16;5069509;28;20036;-80
2023/06/28 01:48:37;;;;;;;0.08;0.08;;;;;;;18.70;66.99;101954.84;5069347;28;20029;-79
2023/06/28 01:51:04;;;;;;;0.05;0.05;;;;;;;18.70;67.10;101953.97;5062296;28;20053;-78
2023/06/28 01:53:30;;;;;;;0.45;0.45;;;;;;;18.70;66.99;101949.47;5078066;28;20029;-78
2023/06/28 01:55:56;;;;;;;0.52;0.52;;;;;;;18.68;67.07;101948.69;5076740;28;20037;-78
2023/06/28 01:58:22;;;;;;;0.10;0.10;;;;;;;18.68;67.29;101950.47;5077070;28;20039;-79
2023/06/28 02:00:48;;;;;;;0.10;0.10;;;;;;;18.64;67.32;101954.22;5066475;28;20040;-80
2023/06/28 02:03:14;;;;;;;0.10;0.10;;;;;;;18.63;67.07;101953.34;5069679;28;20061;-80
2023/06/28 02:05:41;;;;;;;0.10;0.10;;;;;;;18.62;67.23;101950.69;5071089;28;20021;-80
2023/06/28 02:08:07;;;;;;;0.10;0.10;;;;;;;18.59;67.35;101954.38;5050554;28;20025;-80
2023/06/28 02:10:34;;;;;;;0.10;0.10;;;;;;;18.56;67.60;101946.44;5068968;28;20028;-80
2023/06/28 02:13:00;;;;;;;0.08;0.08;;;;;;;18.55;67.68;101953.59;5069157;28;20036;-80
2023/06/28 02:15:26;;;;;;;0.00;0.00;;;;;;;18.56;68.03;101949.97;5067432;28;20033;-78
2023/06/28 02:17:56;;;;;;;0.10;0.10;;;;;;;18.55;68.18;101955.41;5067191;28;20036;-80
2023/06/28 02:20:22;;;;;;;2.28;1.33;;;;;;;18.58;67.99;101947.28;5065192;28;20029;-79
2023/06/28 02:22:48;;;;;;;0.00;0.00;;;;;;;18.59;68.43;101940.94;5061728;28;20044;-79
2023/06/28 02:25:14;;;;;;;0.10;0.10;;;;;;;18.57;68.24;101937.47;5064302;28;20017;-79
2023/06/28 02:27:40;;;;;;;0.00;0.00;;;;;;;18.60;67.88;101942.69;5066564;28;20070;-79
2023/06/28 02:30:08;;;;;;;0.45;0.45;;;;;;;18.63;68.03;101931.88;5061160;28;20463;-79
2023/06/28 02:32:34;;;;;;;1.00;1.00;;;;;;;18.67;68.57;101941.56;5060288;28;20020;-79
2023/06/28 02:35:00;;;;;;;0.10;0.10;;;;;;;18.69;68.77;101937.00;5057849;28;20048;-78
2023/06/28 02:37:26;;;;;;;0.10;0.10;;;;;;;18.70;68.94;101933.38;5058255;28;20024;-79
2023/06/28 02:39:52;;;;;;;0.00;0.00;;;;;;;18.71;68.55;101932.44;5058422;28;20024;-79
2023/06/28 02:42:18;;;;;;;0.30;0.30;;;;;;;18.72;68.61;101936.03;5056844;28;20025;-78
2023/06/28 02:44:44;;;;;;;0.20;0.20;;;;;;;18.75;68.79;101934.09;5053748;28;20041;-79
2023/06/28 02:47:11;;;;;;;0.10;0.10;;;;;;;18.79;68.66;101933.97;5056040;28;20024;-79
2023/06/28 02:49:37;;;;;;;0.03;0.03;;;;;;;18.81;68.90;101934.81;5058978;28;20035;-79
2023/06/28 02:52:03;;;;;;;0.00;0.00;;;;;;;18.80;69.03;101925.84;5056018;28;20496;-78
2023/06/28 02:54:29;;;;;;;0.00;0.00;;;;;;;18.82;68.85;101925.81;5055618;28;20090;-78
2023/06/28 02:56:55;;;;;;;0.28;0.28;;;;;;;18.81;68.91;101935.66;5055553;28;20036;-78
2023/06/28 02:59:21;;;;;;;0.10;0.10;;;;;;;18.83;69.33;101933.81;5055236;28;20033;-79
2023/06/28 03:01:48;;;;;;;0.10;0.10;;;;;;;18.89;69.88;101936.28;5056914;28;20051;-79
2023/06/28 03:04:15;;;;;;;0.10;0.10;;;;;;;18.91;69.45;101936.25;5055561;28;20037;-79
2023/06/28 03:06:47;;;;;;;0.00;0.00;;;;;;;18.90;69.82;101931.75;5054797;28;20031;-79
2023/06/28 03:09:13;;;;;;;0.10;0.10;;;;;;;18.89;69.54;101927.31;5055628;28;20547;-79
2023/06/28 03:11:39;;;;;;;0.75;0.75;;;;;;;18.91;69.54;101925.50;5052407;28;20039;-78
2023/06/28 03:14:05;;;;;;;0.03;0.03;;;;;;;18.91;69.54;101925.50;5053472;28;20032;-79
2023/06/28 03:16:31;;;;;;;0.38;0.38;;;;;;;18.89;69.56;101927.31;5053499;28;20025;-80
2023/06/28 03:18:57;;;;;;;0.08;0.08;;;;;;;18.90;69.32;101923.69;5058543;28;20112;-80
2023/06/28 03:21:23;;;;;;;0.10;0.10;;;;;;;18.93;69.71;101920.97;5066741;28;20036;-80
2023/06/28 03:23:49;;;;;;;0.00;0.00;;;;;;;18.94;70.08;101920.03;5068309;28;20074;-80
2023/06/28 03:26:15;;;;;;;0.10;0.10;;;;;;;18.95;69.64;101927.13;5067129;28;20021;-79
2023/06/28 03:28:41;;;;;;;0.00;0.00;;;;;;;18.95;70.42;101927.13;5068162;28;20044;-80
2023/06/28 03:31:07;;;;;;;0.52;0.52;;;;;;;18.97;70.09;101925.25;5066854;28;20078;-81
2023/06/28 03:33:34;;;;;;;0.15;0.15;;;;;;;18.99;70.48;101922.50;5067944;28;20036;-79
2023/06/28 03:36:00;;;;;;;0.15;0.15;;;;;;;19.01;70.20;101923.34;5066749;28;20040;-80
2023/06/28 03:38:26;;;;;;;0.35;0.35;;;;;;;19.01;70.49;101913.47;5068815;28;20021;-80
2023/06/28 03:40:52;;;;;;;0.10;0.10;;;;;;;19.00;70.59;101909.03;5070485;28;20094;-80
2023/06/28 03:43:18;;;;;;;0.00;0.00;;;;;;;19.01;70.35;101908.09;5068610;28;20107;-80
2023/06/28 03:45:44;;;;;;;0.00;0.00;;;;;;;19.02;70.70;101904.47;5069248;28;20443;-79
2023/06/28 03:48:10;;;;;;;0.05;0.05;;;;;;;19.04;70.79;101909.78;5069898;28;20017;-80
2023/06/28 03:50:36;;;;;;;0.10;0.10;;;;;;;19.06;70.83;101906.09;5068389;28;20033;-78
2023/06/28 03:53:02;;;;;;;0.10;0.10;;;;;;;19.11;70.87;101905.94;5069744;28;20031;-80
2023/06/28 03:55:29;;;;;;;0.10;0.10;;;;;;;19.14;70.85;101902.25;5069401;28;20037;-80
2023/06/28 03:57:55;;;;;;;0.10;0.10;;;;;;;19.10;71.11;101903.31;5067561;28;20024;-79
2023/06/28 04:00:21;;;;;;;0.20;0.20;;;;;;;19.08;70.73;101901.56;5068335;28;20088;-81
2023/06/28 04:02:48;;;;;;;0.10;0.10;;;;;;;19.07;70.29;101899.78;5072477;28;20029;-80
2023/06/28 04:05:14;;;;;;;0.70;0.70;;;;;;;19.08;69.56;101896.19;5067890;28;20017;-79
2023/06/28 04:07:40;;;;;;;0.20;0.20;;;;;;;19.06;69.82;101895.34;5069010;28;20050;-79
2023/06/28 04:10:06;;;;;;;1.38;0.52;;;;;;;19.06;69.94;101897.16;5067888;28;20025;-80
2023/06/28 04:12:33;;;;;;;0.13;0.13;;;;;;;19.03;69.99;101903.53;5067775;28;20037;-80
2023/06/28 04:15:01;;;;;;;0.30;0.30;;;;;;;19.02;70.00;101895.56;5069288;28;20123;-80
2023/06/28 04:17:27;;;;;;;0.10;0.10;;;;;;;19.03;70.08;101890.13;5069431;28;20080;-80
2023/06/28 04:19:53;;;;;;;0.00;0.00;;;;;;;19.05;69.59;101898.09;5069538;28;20031;-81
2023/06/28 04:22:19;;;;;;;0.13;0.13;;;;;;;19.05;70.18;101901.69;5051628;28;20040;-80
2023/06/28 04:24:45;;;;;;;0.00;0.00;;;;;;;19.11;70.12;101899.69;5067943;28;20032;-80
2023/06/28 04:27:11;;;;;;;0.10;0.10;;;;;;;19.14;70.19;101895.06;5067982;28;20021;-80
2023/06/28 04:29:37;;;;;;;0.03;0.03;;;;;;;19.17;70.50;101894.94;5067653;28;20033;-80
2023/06/28 04:32:19;;;;;;;0.08;0.08;;;;;;;19.21;70.00;101901.06;5067528;28;20029;-81
2023/06/28 04:34:46;;;;;;;0.03;0.03;;;;;;;19.26;70.11;101904.44;5067804;28;20584;-80
2023/06/28 04:37:12;;;;;;;0.10;0.10;;;;;;;19.26;70.63;101900.91;5064948;28;20017;-79
2023/06/28 04:39:38;;;;;;;0.10;0.10;;;;;;;19.28;70.36;101905.28;5070017;28;20086;-80
2023/06/28 04:42:06;;;;;;;0.08;0.08;;;;;;;19.30;69.98;101907.88;5073289;28;20021;-80
2023/06/28 04:44:36;;;;;;;0.00;0.00;;;;;;;19.29;70.27;101911.50;5068445;28;20024;-79
2023/06/28 04:47:03;;;;;;;0.10;0.10;;;;;;;19.26;70.26;101906.28;5062870;28;20017;-80
2023/06/28 04:49:30;;;;;;;0.08;0.08;;;;;;;19.28;70.40;101907.06;5070267;28;20091;-78
2023/06/28 04:51:56;;;;;;;0.10;0.10;;;;;;;19.27;70.77;101908.03;5069687;28;20502;-80
2023/06/28 04:54:22;;;;;;;0.75;0.75;;;;;;;19.30;70.60;101906.09;5069294;28;20087;-78
2023/06/28 04:56:48;;;;;;;0.03;0.03;;;;;;;19.26;70.53;101901.75;5050651;28;20033;-77
2023/06/28 04:59:15;;;;;;;0.10;0.10;;;;;;;19.25;71.10;101905.38;5066693;28;20028;-79
2023/06/28 05:01:41;;;;;;;0.52;0.52;;;;;;;19.30;70.60;101900.72;5072299;28;20060;-78
2023/06/28 05:04:07;;;;;;;0.10;0.10;;;;;;;19.33;70.93;101900.59;5073396;28;20039;-77
2023/06/28 05:06:35;;;;;;;0.10;0.10;;;;;;;19.34;71.12;101901.44;5070244;28;20028;-79
2023/06/28 05:09:02;;;;;;;0.10;0.10;;;;;;;19.38;70.68;101903.09;5062930;28;20017;-79
2023/06/28 05:11:28;;;;;;;0.10;0.10;;;;;;;19.37;70.88;101899.50;5067773;28;20029;-79
2023/06/28 05:13:54;;;;;;;1.33;1.25;;;;;;;19.36;71.00;101900.44;5064531;28;20078;-79
2023/06/28 05:16:20;;;;;;;0.35;0.35;;;;;;;19.37;71.13;101895.97;5062429;28;20051;-79
2023/06/28 05:18:46;;;;;;;0.10;0.10;;;;;;;19.40;71.23;101896.72;5068341;28;20132;-79
2023/06/28 05:21:12;;;;;;;0.45;0.45;;;;;;;19.43;70.91;101890.34;5067756;28;20036;-79
2023/06/28 05:23:38;;;;;;;0.17;0.17;;;;;;;19.45;70.94;101891.16;5069498;28;20134;-78
2023/06/28 05:26:04;;;;;;;0.10;0.10;;;;;;;19.48;70.81;101898.22;5066659;28;20096;-79
2023/06/28 05:28:30;;;;;;;0.30;0.30;;;;;;;19.51;70.76;101892.72;5064121;28;20040;-79
2023/06/28 05:30:56;;;;;;;0.00;0.00;;;;;;;19.51;70.64;101893.56;5068358;28;20033;-79
2023/06/28 05:33:22;;;;;;;0.28;0.28;;;;;;;19.50;70.32;101896.34;5068607;28;20036;-79
2023/06/28 05:35:49;;;;;;;0.20;0.20;;;;;;;19.52;70.43;101899.84;5069615;28;20086;-79
2023/06/28 05:38:15;;;;;;;0.10;0.10;;;;;;;19.50;69.96;101890.94;5048319;28;20101;-79
2023/06/28 05:40:41;;;;;;;0.10;0.10;;;;;;;19.46;70.00;101890.19;5073834;28;20040;-79
2023/06/28 05:43:07;;;;;;;0.00;0.00;;;;;;;19.46;69.85;101892.03;5067820;28;20104;-80
2023/06/28 05:45:33;;;;;;;1.55;1.40;;;;;;;19.46;69.94;101900.09;5068772;28;20523;-80
2023/06/28 05:47:59;;;;;;;0.65;0.65;;;;;;;19.45;69.96;101898.34;5067123;28;20084;-80
2023/06/28 05:50:26;;;;;;;0.05;0.05;;;;;;;19.47;69.91;101896.47;5061290;28;20095;-80
2023/06/28 05:52:52;;;;;;;0.20;0.20;;;;;;;19.50;69.90;101890.94;5065407;28;20036;-79
2023/06/28 05:55:18;;;;;;;0.20;0.20;;;;;;;19.54;70.04;101887.22;5058086;28;20056;-80
2023/06/28 05:57:45;;;;;;;0.10;0.10;;;;;;;19.55;70.08;101884.47;5061817;28;20051;-79
2023/06/28 06:00:12;;;;;;;0.10;0.10;;;;;;;19.58;70.12;101888.84;5041279;28;20028;-79
2023/06/28 06:02:39;;;;;;;0.00;0.00;;;;;;;19.60;70.29;101886.06;5061251;28;20040;-80
2023/06/28 06:05:05;;;;;;;1.45;0.80;;;;;;;19.64;69.92;101883.22;5061600;28;20419;-79
2023/06/28 06:07:34;;;;;;;3.50;1.05;;;;;;;19.68;70.17;101879.44;5062061;28;20043;-79
2023/06/28 06:10:00;;;;;;;0.25;0.25;;;;;;;19.70;70.22;101877.56;5061670;28;20028;-79
2023/06/28 06:12:26;;;;;;;0.10;0.10;;;;;;;19.69;70.37;101881.19;5065793;28;20043;-80
2023/06/28 06:14:52;;;;;;;0.32;0.32;;;;;;;19.72;70.25;101880.19;5066652;28;20391;-80
2023/06/28 06:17:19;;;;;;;0.10;0.10;;;;;;;19.76;70.40;101876.41;5068581;28;20108;-80
2023/06/28 06:19:45;;;;;;;0.08;0.08;;;;;;;19.82;70.08;101875.31;5057995;28;20036;-78
2023/06/28 06:22:11;;;;;;;0.10;0.10;;;;;;;19.83;70.34;101877.09;5058342;28;20029;-79
2023/06/28 06:24:37;;;;;;;0.25;0.25;;;;;;;19.87;70.47;101884.06;5061414;28;20054;-81
2023/06/28 06:27:04;;;;;;;0.10;0.10;;;;;;;19.92;70.18;101886.59;5061112;28;20029;-81
2023/06/28 06:29:30;;;;;;;0.10;0.10;;;;;;;19.93;70.29;101877.56;5060808;28;20122;-80
2023/06/28 06:31:56;;;;;;;0.43;0.43;;;;;;;19.98;70.01;101879.09;5062829;28;20668;-79
2023/06/28 06:34:22;;;;;;;1.27;0.50;;;;;;;20.05;69.95;101879.75;5063068;28;20108;-81
2023/06/28 06:36:48;;;;;;;0.10;0.10;;;;;;;20.09;70.31;101880.44;5063515;28;20033;-82
2023/06/28 06:39:15;;;;;;;0.13;0.13;;;;;;;20.09;69.63;101872.38;5065100;28;20032;-81
2023/06/28 06:41:41;;;;;;;0.10;0.10;;;;;;;20.09;69.58;101875.97;5064505;28;20381;-81
2023/06/28 06:44:07;;;;;;;0.35;0.35;;;;;;;20.12;69.02;101883.03;5063293;28;20029;-81
2023/06/28 06:46:33;;;;;;;0.08;0.08;;;;;;;20.13;68.99;101884.78;5064263;28;20023;-81
2023/06/28 06:48:59;;;;;;;0.30;0.30;;;;;;;20.15;68.80;101872.09;5063656;28;20456;-81
2023/06/28 06:51:25;;;;;;;0.00;0.00;;;;;;;20.19;68.95;101868.38;5065669;28;20485;-81
2023/06/28 06:53:51;;;;;;;1.17;1.15;;;;;;;20.18;68.67;101878.22;5064639;28;20082;-80
2023/06/28 06:56:22;;;;;;;0.15;0.15;;;;;;;20.25;68.25;101872.59;5069607;28;20036;-79
2023/06/28 06:58:48;;;;;;;0.43;0.43;;;;;;;20.23;67.93;101879.88;5064330;28;20032;-81
2023/06/28 07:01:14;;;;;;;0.10;0.10;;;;;;;20.27;68.04;101874.25;5063762;28;20024;-80
2023/06/28 07:03:40;;;;;;;0.25;0.25;;;;;;;20.33;67.94;101879.38;5059139;28;20100;-80
2023/06/28 07:06:07;;;;;;;0.17;0.17;;;;;;;20.42;68.11;101885.28;5056661;28;20024;-81
2023/06/28 07:08:34;;;;;;;0.10;0.10;;;;;;;20.51;68.10;101880.38;5057683;28;20388;-80
2023/06/28 07:11:00;;;;;;;0.65;0.65;;;;;;;20.61;67.82;101880.84;5057479;28;20021;-80
2023/06/28 07:13:26;;;;;;;0.10;0.10;;;;;;;20.60;66.73;101879.09;5059209;28;20053;-82
2023/06/28 07:15:52;;;;;;;0.10;0.10;;;;;;;20.65;66.53;101874.34;5062283;28;20044;-80
2023/06/28 07:18:18;;;;;;;0.10;0.10;;;;;;;20.68;66.46;101881.41;5062160;28;20036;-80
2023/06/28 07:20:44;;;;;;;4.25;0.57;;;;;;;20.61;65.83;101885.31;5060258;28;20028;-80
2023/06/28 07:23:10;;;;;;;0.25;0.25;;;;;;;20.55;65.60;101886.50;5061279;28;20032;-80
2023/06/28 07:25:38;;;;;;;1.77;0.43;;;;;;;20.56;65.99;101892.75;5060966;28;20543;-81
2023/06/28 07:28:04;;;;;;;0.05;0.05;;;;;;;20.58;66.14;101890.88;5060083;28;20430;-81
2023/06/28 07:30:49;;;;;;;0.05;0.05;;;;;;;20.60;66.05;101894.34;5043014;28;20037;-81
2023/06/28 07:33:15;;;;;;;0.00;0.00;;;;;;;20.63;65.46;101895.06;5059874;28;20082;-81
2023/06/28 07:35:41;;;;;;;0.10;0.10;;;;;;;20.77;66.34;101893.59;5059580;28;20093;-81
2023/06/28 07:38:07;;;;;;;1.33;1.33;;;;;;;20.84;66.31;101903.16;5059889;28;20483;-80
2023/06/28 07:40:34;;;;;;;0.10;0.10;;;;;;;20.93;65.91;101896.47;5059659;28;20504;-81
2023/06/28 07:43:02;;;;;;;1.20;0.63;;;;;;;21.03;65.85;101894.22;5058898;28;20037;-81
2023/06/28 07:45:29;;;;;;;0.10;0.10;;;;;;;21.11;65.96;101895.59;5060385;28;20399;-84
2023/06/28 07:47:55;;;;;;;0.85;0.85;;;;;;;21.20;65.54;101893.38;5064172;28;20059;-82
2023/06/28 07:50:22;;;;;;;0.30;0.30;;;;;;;21.19;64.26;101887.13;5069073;28;20542;-81
2023/06/28 07:52:48;;;;;;;1.25;1.23;;;;;;;21.29;64.24;101892.97;5062768;28;20088;-86
2023/06/28 07:55:14;;;;;;;0.40;0.40;;;;;;;21.32;63.68;101893.69;5064215;28;20036;-83
2023/06/28 07:57:40;;;;;;;0.10;0.10;;;;;;;21.40;63.33;101884.34;5065157;28;20037;-82
2023/06/28 08:00:09;;;;;;;1.17;0.90;;;;;;;21.44;62.57;101891.34;5067724;28;20372;-82
2023/06/28 08:02:35;;;;;;;0.35;0.35;;;;;;;21.57;62.81;101886.22;5066501;28;20040;-82
2023/06/28 08:05:01;;;;;;;0.10;0.10;;;;;;;21.57;62.16;101892.50;5075436;28;20028;-81
2023/06/28 08:07:27;;;;;;;0.10;0.10;;;;;;;21.64;62.27;101888.53;5079312;28;20024;-79
2023/06/28 08:09:53;;;;;;;0.68;0.68;;;;;;;21.59;61.52;101887.91;5069528;28;20029;-82
2023/06/28 08:12:19;;;;;;;0.20;0.20;;;;;;;21.58;61.39;101893.38;5069249;28;20029;-83
2023/06/28 08:14:45;;;;;;;0.63;0.63;;;;;;;21.68;61.82;101893.78;5065712;28;20056;-83
2023/06/28 08:17:11;;;;;;;0.35;0.35;;;;;;;21.75;62.10;101887.16;5066960;28;20029;-81
2023/06/28 08:19:37;;;;;;;0.10;0.10;;;;;;;21.85;62.12;101891.13;5067504;28;21657;-80
2023/06/28 08:22:04;;;;;;;0.10;0.10;;;;;;;21.87;61.43;101883.81;5068087;28;20260;-81
2023/06/28 08:24:30;;;;;;;0.17;0.17;;;;;;;22.02;61.84;101881.28;5061788;28;20150;-80
2023/06/28 08:26:56;;;;;;;0.38;0.38;;;;;;;22.12;61.89;101887.94;5069728;28;20155;-81
2023/06/28 08:29:22;;;;;;;0.15;0.15;;;;;;;22.21;61.11;101882.06;5063728;28;20528;-82
2023/06/28 08:31:49;;;;;;;6.20;2.00;;;;;;;22.36;61.46;101890.31;5067854;28;20102;-81
2023/06/28 08:34:16;;;;;;;0.20;0.20;;;;;;;22.45;61.21;101890.72;5068728;28;20135;-79
2023/06/28 08:36:42;;;;;;;0.10;0.10;;;;;;;22.55;60.94;101880.28;5066706;28;20033;-79
2023/06/28 08:39:08;;;;;;;0.10;0.10;;;;;;;22.70;61.25;101883.97;5062095;28;20090;-83
2023/06/28 08:41:35;;;;;;;0.10;0.10;;;;;;;22.76;60.79;101888.19;5062659;28;20043;-80
2023/06/28 08:44:04;;;;;;;0.20;0.20;;;;;;;22.78;59.18;101880.88;5047476;28;20392;-80
2023/06/28 08:46:31;;;;;;;11.98;1.35;;;;;;;22.89;60.23;101889.25;5059590;28;20356;-81
2023/06/28 08:48:59;;;;;;;0.10;0.10;;;;;;;22.92;60.28;101888.19;5060398;28;20399;-80
2023/06/28 08:51:25;;;;;;;0.20;0.20;;;;;;;23.00;60.50;101890.47;5056303;28;20113;-80
2023/06/28 08:53:54;;;;;;;0.50;0.50;;;;;;;23.06;59.93;101890.13;5059470;28;20044;-82
2023/06/28 08:56:20;;;;;;;0.20;0.20;;;;;;;23.15;60.35;101884.19;5063299;28;20024;-84
2023/06/28 08:58:48;;;;;;;0.10;0.10;;;;;;;23.27;60.66;101890.78;5061024;28;20036;-85
2023/06/28 09:01:15;;;;;;;1.00;1.00;;;;;;;23.33;59.28;101884.13;5060033;28;20025;-79
2023/06/28 09:03:42;;;;;;;0.10;0.10;;;;;;;23.44;59.62;101889.81;5062061;28;20033;-81
2023/06/28 09:06:09;;;;;;;1.23;0.20;;;;;;;23.45;58.80;101880.72;5067394;28;20369;-81
2023/06/28 09:08:36;;;;;;;0.20;0.20;;;;;;;23.46;58.40;101887.00;5059720;28;20041;-81
2023/06/28 09:11:02;;;;;;;0.10;0.10;;;;;;;23.52;59.03;101883.94;5059111;28;20055;-81
2023/06/28 09:13:29;;;;;;;1.30;1.20;;;;;;;23.52;58.04;101887.50;5057277;28;20041;-80
2023/06/28 09:15:56;;;;;;;0.15;0.15;;;;;;;23.58;57.99;101881.75;5056520;28;20029;-82
2023/06/28 09:18:22;;;;;;;0.85;0.85;;;;;;;23.65;58.78;101870.56;5057165;28;20024;-80
2023/06/28 09:20:51;;;;;;;0.10;0.10;;;;;;;23.70;57.95;101876.56;5056668;28;20045;-81
2023/06/28 09:23:26;;;;;;;1.13;0.65;;;;;;;23.79;58.39;101873.34;5056913;28;20492;-81
2023/06/28 09:25:53;;;;;;;0.52;0.52;;;;;;;23.78;58.21;101866.19;5058048;28;20061;-80
2023/06/28 09:28:21;;;;;;;0.00;0.00;;;;;;;23.82;58.34;101877.69;5057596;28;20473;-81
2023/06/28 09:30:55;;;;;;;1.13;1.02;;;;;;;23.77;58.47;101863.56;5057490;28;20472;-82
2023/06/28 09:33:23;;;;;;;0.22;0.22;;;;;;;23.71;58.68;101870.19;5055915;28;20025;-81
2023/06/28 09:35:54;;;;;;;0.20;0.20;;;;;;;23.62;58.59;101876.16;5055213;28;20025;-81
2023/06/28 09:38:21;;;;;;;0.55;0.55;;;;;;;23.51;59.01;101880.34;5056363;28;20033;-82
2023/06/28 09:41:02;;;;;;;0.40;0.40;;;;;;;23.39;58.26;101873.84;5055656;28;20376;-81
2023/06/28 09:43:33;;;;;;;0.32;0.32;;;;;;;23.30;59.18;101876.22;5051918;28;20033;-81
2023/06/28 09:46:11;;;;;;;0.60;0.60;;;;;;;23.25;59.17;101874.66;5066574;28;20033;-82
2023/06/28 09:48:40;;;;;;;0.20;0.20;;;;;;;23.07;59.61;101881.06;5057214;28;20112;-82
2023/06/28 09:51:07;;;;;;;0.10;0.10;;;;;;;23.05;59.91;101882.97;5062259;28;20028;-82
2023/06/28 09:53:34;;;;;;;0.95;0.93;;;;;;;23.06;60.25;101879.31;5061646;28;20037;-83
2023/06/28 09:56:00;;;;;;;0.22;0.22;;;;;;;23.15;60.03;101867.97;5050304;28;20025;-83
2023/06/28 09:58:29;;;;;;;0.52;0.50;;;;;;;23.38;60.46;101868.53;5052400;28;20097;-82
2023/06/28 10:00:56;;;;;;;2.35;1.35;;;;;;;23.65;60.70;101874.16;5063548;28;20033;-82
2023/06/28 10:03:25;;;;;;;0.28;0.28;;;;;;;23.83;58.79;101860.50;5052383;28;20029;-83
2023/06/28 10:05:56;;;;;;;0.10;0.10;;;;;;;24.03;57.50;101864.72;5056441;28;20028;-82
2023/06/28 10:08:24;;;;;;;0.97;0.33;;;;;;;24.19;57.59;101865.53;5058581;28;20029;-83
2023/06/28 10:10:55;;;;;;;0.30;0.30;;;;;;;24.33;57.62;101861.09;5056425;28;20278;-82
2023/06/28 10:13:21;;;;;;;0.45;0.45;;;;;;;24.31;57.46;101858.50;5055959;28;20040;-83
2023/06/28 10:18:46;;;;;;;0.55;0.55;;;;;;;24.44;57.54;101860.44;5051822;28;20387;-81
2023/06/28 10:21:13;;;;;;;1.75;1.17;;;;;;;24.38;56.26;101864.38;5051523;28;20021;-82
2023/06/28 10:23:40;;;;;;;1.10;1.10;;;;;;;24.47;57.39;101858.38;5040580;28;20119;-82
2023/06/28 10:26:12;;;;;;;0.35;0.35;;;;;;;24.53;56.43;101852.56;5033908;28;20083;-82
2023/06/28 10:28:39;;;;;;;0.55;0.55;;;;;;;24.72;57.15;101854.16;5040820;28;20401;-82
2023/06/28 10:31:09;;;;;;;2.85;1.08;;;;;;;24.86;57.23;101851.44;5028960;28;20026;-83
2023/06/28 10:34:20;;;;;;;0.75;0.75;;;;;;;24.90;55.68;101853.94;5045362;28;20092;-84
2023/06/28 10:36:52;;;;;;;0.20;0.20;;;;;;;25.07;55.69;101850.97;5037516;28;20051;-83
2023/06/28 10:39:21;;;;;;;0.68;0.68;;;;;;;25.22;55.96;101854.53;5036071;28;20079;-83
2023/06/28 10:41:57;;;;;;;0.30;0.30;;;;;;;25.23;55.96;101850.00;5031993;28;20073;-83
2023/06/28 10:44:23;;;;;;;0.52;0.52;;;;;;;25.32;54.82;101847.53;5037868;28;20034;-83
2023/06/28 10:47:11;;;;;;;0.45;0.45;;;;;;;25.45;55.37;101849.47;5029714;28;20034;-81
2023/06/28 10:49:40;;;;;;;0.68;0.68;;;;;;;25.42;54.77;101850.53;5046985;28;20032;-81
2023/06/28 10:52:13;;;;;;;0.95;0.90;;;;;;;25.43;54.24;101846.81;5045948;28;20559;-83
2023/06/28 10:54:42;;;;;;;0.10;0.10;;;;;;;25.44;53.90;101842.28;5038872;28;20064;-83
2023/06/28 10:57:11;;;;;;;0.10;0.10;;;;;;;25.42;54.49;101845.13;5038521;28;20025;-82
2023/06/28 10:59:41;;;;;;;0.30;0.30;;;;;;;25.52;55.14;101838.09;5039449;28;20113;-81
2023/06/28 11:02:09;;;;;;;0.20;0.20;;;;;;;25.47;53.98;101842.06;5034416;28;20501;-83
2023/06/28 11:04:51;;;;;;;0.52;0.52;;;;;;;25.46;54.56;101841.22;5035780;28;20038;-83
2023/06/28 11:07:21;;;;;;;0.20;0.20;;;;;;;25.33;54.04;101849.28;5042565;28;20040;-82
2023/06/28 11:12:48;;;;;;;1.35;1.20;;;;;;;25.08;55.54;101847.31;5134557;27;20383;-82
2023/06/28 11:15:26;;;;;;;1.20;0.82;;;;;;;24.98;55.77;101854.31;5117137;28;20498;-83
2023/06/28 11:17:52;;;;;;;0.70;0.70;;;;;;;24.71;55.84;101850.56;5111040;28;20096;-82
2023/06/28 11:20:18;;;;;;;0.40;0.40;;;;;;;24.56;56.58;101846.09;5104683;28;20094;-83
2023/06/28 11:22:49;;;;;;;1.88;0.65;;;;;;;24.40;57.13;101851.63;5118978;28;20268;-81
2023/06/28 11:25:16;;;;;;;0.13;0.13;;;;;;;24.29;57.75;101851.41;5109480;28;20046;-81
2023/06/28 11:27:42;;;;;;;0.70;0.70;;;;;;;24.20;58.39;101848.31;5116325;28;20040;-81
2023/06/28 11:30:09;;;;;;;0.20;0.20;;;;;;;24.17;58.02;101853.91;5108944;28;20029;-82